Empalme Villa Constitucion, Argentina
Current Conditions -  °F | °C
As of 7:00 PM on Friday 19 Dec 2014 (Local Time) from SAAR Reporting Station
Clear Clear  
Wind Chill: 90°   Ceiling: Unl
Heat Index: 92°   Visibility: 6mi
Dew Point: 66°   Wind: 10mph
Humidity: 46%   Direction: 20°NNE
Pressure: 29.5"   Gusts: NA
Location:  33.27°S, 60.38°W
Report Text: SAAR 192200Z 02009KT CAVOK 32/19 Q0999
Loading
Personal Weather Stations






























Interactive Weather Map New forecast layout! Learn more

10-Day Weather Forecast

Advertisements
Track Severe Weather on mobile